sensor_id;sensor_type;location;lat;lon;timestamp;P1;durP1;ratioP1;P2;durP2;ratioP2
60722;SDS011;46574;52.818;6.516;2024-01-27T00:00:09;19.40;;;3.72;;
60722;SDS011;46574;52.818;6.516;2024-01-27T00:02:35;12.90;;;3.80;;
60722;SDS011;46574;52.818;6.516;2024-01-27T00:05:01;18.42;;;3.97;;
60722;SDS011;46574;52.818;6.516;2024-01-27T00:07:27;13.40;;;3.90;;
60722;SDS011;46574;52.818;6.516;2024-01-27T00:09:53;16.58;;;4.10;;
60722;SDS011;46574;52.818;6.516;2024-01-27T00:12:20;18.52;;;4.75;;
60722;SDS011;46574;52.818;6.516;2024-01-27T00:14:46;21.52;;;4.20;;
60722;SDS011;46574;52.818;6.516;2024-01-27T00:17:11;16.83;;;4.05;;
60722;SDS011;46574;52.818;6.516;2024-01-27T00:19:37;16.92;;;4.22;;
60722;SDS011;46574;52.818;6.516;2024-01-27T00:22:03;19.55;;;4.35;;
60722;SDS011;46574;52.818;6.516;2024-01-27T00:24:28;21.77;;;4.18;;
60722;SDS011;46574;52.818;6.516;2024-01-27T00:26:54;15.27;;;3.75;;
60722;SDS011;46574;52.818;6.516;2024-01-27T00:29:20;21.65;;;5.05;;
60722;SDS011;46574;52.818;6.516;2024-01-27T00:31:45;14.23;;;4.30;;
60722;SDS011;46574;52.818;6.516;2024-01-27T00:34:11;19.58;;;4.43;;
60722;SDS011;46574;52.818;6.516;2024-01-27T00:36:37;13.73;;;4.60;;
60722;SDS011;46574;52.818;6.516;2024-01-27T00:39:03;21.23;;;4.63;;
60722;SDS011;46574;52.818;6.516;2024-01-27T00:41:29;19.58;;;4.50;;
60722;SDS011;46574;52.818;6.516;2024-01-27T00:43:55;16.27;;;4.53;;
60722;SDS011;46574;52.818;6.516;2024-01-27T00:46:21;11.82;;;3.95;;
60722;SDS011;46574;52.818;6.516;2024-01-27T00:48:47;16.80;;;4.70;;
60722;SDS011;46574;52.818;6.516;2024-01-27T00:51:12;18.83;;;4.82;;
60722;SDS011;46574;52.818;6.516;2024-01-27T00:53:38;17.40;;;4.32;;
60722;SDS011;46574;52.818;6.516;2024-01-27T00:56:04;18.55;;;4.43;;
60722;SDS011;46574;52.818;6.516;2024-01-27T00:58:30;13.50;;;4.32;;
60722;SDS011;46574;52.818;6.516;2024-01-27T01:00:56;15.32;;;4.53;;
60722;SDS011;46574;52.818;6.516;2024-01-27T01:03:23;18.58;;;4.28;;
60722;SDS011;46574;52.818;6.516;2024-01-27T01:05:49;16.85;;;4.22;;
60722;SDS011;46574;52.818;6.516;2024-01-27T01:08:15;15.70;;;4.57;;
60722;SDS011;46574;52.818;6.516;2024-01-27T01:10:40;15.40;;;4.20;;
60722;SDS011;46574;52.818;6.516;2024-01-27T01:13:06;15.13;;;4.13;;
60722;SDS011;46574;52.818;6.516;2024-01-27T01:15:32;17.00;;;5.07;;
60722;SDS011;46574;52.818;6.516;2024-01-27T01:17:57;12.15;;;3.80;;
60722;SDS011;46574;52.818;6.516;2024-01-27T01:20:23;13.73;;;4.35;;
60722;SDS011;46574;52.818;6.516;2024-01-27T01:22:51;13.63;;;4.15;;
60722;SDS011;46574;52.818;6.516;2024-01-27T01:25:16;14.18;;;4.55;;
60722;SDS011;46574;52.818;6.516;2024-01-27T01:27:42;16.92;;;4.35;;
60722;SDS011;46574;52.818;6.516;2024-01-27T01:30:08;17.13;;;4.82;;
60722;SDS011;46574;52.818;6.516;2024-01-27T01:32:34;12.45;;;4.38;;
60722;SDS011;46574;52.818;6.516;2024-01-27T01:35:00;19.20;;;4.90;;
60722;SDS011;46574;52.818;6.516;2024-01-27T01:37:26;13.98;;;4.65;;
60722;SDS011;46574;52.818;6.516;2024-01-27T01:39:51;15.98;;;4.53;;
60722;SDS011;46574;52.818;6.516;2024-01-27T01:42:17;17.02;;;4.55;;
60722;SDS011;46574;52.818;6.516;2024-01-27T01:44:43;15.23;;;3.85;;
60722;SDS011;46574;52.818;6.516;2024-01-27T01:47:09;12.82;;;4.32;;
60722;SDS011;46574;52.818;6.516;2024-01-27T01:49:35;18.20;;;4.75;;
60722;SDS011;46574;52.818;6.516;2024-01-27T01:52:02;13.75;;;4.13;;
60722;SDS011;46574;52.818;6.516;2024-01-27T01:54:28;17.48;;;4.15;;
60722;SDS011;46574;52.818;6.516;2024-01-27T01:56:55;15.05;;;3.95;;
60722;SDS011;46574;52.818;6.516;2024-01-27T01:59:23;16.02;;;5.82;;
60722;SDS011;46574;52.818;6.516;2024-01-27T02:01:49;15.88;;;4.55;;
60722;SDS011;46574;52.818;6.516;2024-01-27T02:04:15;17.70;;;4.45;;
60722;SDS011;46574;52.818;6.516;2024-01-27T02:06:40;15.25;;;4.18;;
60722;SDS011;46574;52.818;6.516;2024-01-27T02:09:06;18.38;;;4.55;;
60722;SDS011;46574;52.818;6.516;2024-01-27T02:11:32;13.93;;;4.68;;
60722;SDS011;46574;52.818;6.516;2024-01-27T02:13:57;14.77;;;5.00;;
60722;SDS011;46574;52.818;6.516;2024-01-27T02:16:23;19.10;;;4.70;;
60722;SDS011;46574;52.818;6.516;2024-01-27T02:18:48;13.55;;;4.13;;
60722;SDS011;46574;52.818;6.516;2024-01-27T02:21:14;16.35;;;4.28;;
60722;SDS011;46574;52.818;6.516;2024-01-27T02:23:40;14.75;;;4.13;;
60722;SDS011;46574;52.818;6.516;2024-01-27T02:26:05;15.60;;;4.75;;
60722;SDS011;46574;52.818;6.516;2024-01-27T02:28:31;12.98;;;4.50;;
60722;SDS011;46574;52.818;6.516;2024-01-27T02:30:58;13.23;;;4.22;;
60722;SDS011;46574;52.818;6.516;2024-01-27T02:33:25;15.27;;;4.43;;
60722;SDS011;46574;52.818;6.516;2024-01-27T02:35:51;15.85;;;4.80;;
60722;SDS011;46574;52.818;6.516;2024-01-27T02:38:16;15.68;;;5.13;;
60722;SDS011;46574;52.818;6.516;2024-01-27T02:40:42;16.02;;;4.60;;
60722;SDS011;46574;52.818;6.516;2024-01-27T02:43:08;15.95;;;4.85;;
60722;SDS011;46574;52.818;6.516;2024-01-27T02:45:33;12.70;;;4.25;;
60722;SDS011;46574;52.818;6.516;2024-01-27T02:47:59;14.75;;;4.13;;
60722;SDS011;46574;52.818;6.516;2024-01-27T02:50:25;19.52;;;4.88;;
60722;SDS011;46574;52.818;6.516;2024-01-27T02:52:50;11.27;;;4.30;;
60722;SDS011;46574;52.818;6.516;2024-01-27T02:55:16;12.70;;;3.97;;
60722;SDS011;46574;52.818;6.516;2024-01-27T02:57:42;15.00;;;4.38;;
60722;SDS011;46574;52.818;6.516;2024-01-27T03:00:07;10.98;;;4.07;;
60722;SDS011;46574;52.818;6.516;2024-01-27T03:02:34;12.88;;;4.50;;
60722;SDS011;46574;52.818;6.516;2024-01-27T03:05:00;13.85;;;4.38;;
60722;SDS011;46574;52.818;6.516;2024-01-27T03:07:25;15.82;;;4.90;;
60722;SDS011;46574;52.818;6.516;2024-01-27T03:09:51;17.67;;;4.60;;
60722;SDS011;46574;52.818;6.516;2024-01-27T03:12:16;13.52;;;4.13;;
60722;SDS011;46574;52.818;6.516;2024-01-27T03:14:43;19.60;;;4.63;;
60722;SDS011;46574;52.818;6.516;2024-01-27T03:17:09;13.55;;;4.30;;
60722;SDS011;46574;52.818;6.516;2024-01-27T03:19:35;16.88;;;4.60;;
60722;SDS011;46574;52.818;6.516;2024-01-27T03:22:01;16.35;;;4.65;;
60722;SDS011;46574;52.818;6.516;2024-01-27T03:24:26;15.32;;;4.15;;
60722;SDS011;46574;52.818;6.516;2024-01-27T03:26:52;12.82;;;4.40;;
60722;SDS011;46574;52.818;6.516;2024-01-27T03:29:18;16.48;;;4.75;;
60722;SDS011;46574;52.818;6.516;2024-01-27T03:31:43;17.33;;;5.15;;
60722;SDS011;46574;52.818;6.516;2024-01-27T03:34:09;13.77;;;4.30;;
60722;SDS011;46574;52.818;6.516;2024-01-27T03:36:35;16.33;;;4.10;;
60722;SDS011;46574;52.818;6.516;2024-01-27T03:39:00;16.70;;;4.53;;
60722;SDS011;46574;52.818;6.516;2024-01-27T03:41:26;13.25;;;4.18;;
60722;SDS011;46574;52.818;6.516;2024-01-27T03:43:52;15.85;;;4.55;;
60722;SDS011;46574;52.818;6.516;2024-01-27T03:46:17;13.70;;;4.60;;
60722;SDS011;46574;52.818;6.516;2024-01-27T03:48:43;15.48;;;5.50;;
60722;SDS011;46574;52.818;6.516;2024-01-27T03:51:09;14.82;;;4.35;;
60722;SDS011;46574;52.818;6.516;2024-01-27T03:53:34;15.70;;;5.43;;
60722;SDS011;46574;52.818;6.516;2024-01-27T03:56:01;14.68;;;4.13;;
60722;SDS011;46574;52.818;6.516;2024-01-27T03:58:29;14.48;;;4.45;;
60722;SDS011;46574;52.818;6.516;2024-01-27T04:00:55;20.63;;;5.10;;
60722;SDS011;46574;52.818;6.516;2024-01-27T04:03:22;14.93;;;4.38;;
60722;SDS011;46574;52.818;6.516;2024-01-27T04:05:47;14.57;;;4.47;;
60722;SDS011;46574;52.818;6.516;2024-01-27T04:08:13;13.18;;;4.72;;
60722;SDS011;46574;52.818;6.516;2024-01-27T04:10:39;17.33;;;4.82;;
60722;SDS011;46574;52.818;6.516;2024-01-27T04:13:04;15.90;;;4.32;;
60722;SDS011;46574;52.818;6.516;2024-01-27T04:15:32;16.95;;;4.45;;
60722;SDS011;46574;52.818;6.516;2024-01-27T04:18:03;15.13;;;4.55;;
60722;SDS011;46574;52.818;6.516;2024-01-27T04:20:33;14.20;;;4.30;;
60722;SDS011;46574;52.818;6.516;2024-01-27T04:23:00;16.42;;;4.55;;
60722;SDS011;46574;52.818;6.516;2024-01-27T04:25:26;14.65;;;4.75;;
60722;SDS011;46574;52.818;6.516;2024-01-27T04:27:52;10.48;;;4.20;;
60722;SDS011;46574;52.818;6.516;2024-01-27T04:30:18;16.13;;;4.53;;
60722;SDS011;46574;52.818;6.516;2024-01-27T04:32:43;12.30;;;4.38;;
60722;SDS011;46574;52.818;6.516;2024-01-27T04:35:09;17.13;;;4.60;;
60722;SDS011;46574;52.818;6.516;2024-01-27T04:37:36;17.08;;;4.75;;
60722;SDS011;46574;52.818;6.516;2024-01-27T04:40:03;14.25;;;3.80;;
60722;SDS011;46574;52.818;6.516;2024-01-27T04:42:31;19.85;;;4.60;;
60722;SDS011;46574;52.818;6.516;2024-01-27T04:45:00;16.90;;;4.45;;
60722;SDS011;46574;52.818;6.516;2024-01-27T04:47:26;15.57;;;4.60;;
60722;SDS011;46574;52.818;6.516;2024-01-27T04:49:52;17.92;;;4.65;;
60722;SDS011;46574;52.818;6.516;2024-01-27T04:52:18;15.70;;;4.50;;
60722;SDS011;46574;52.818;6.516;2024-01-27T04:54:44;17.55;;;5.18;;
60722;SDS011;46574;52.818;6.516;2024-01-27T04:57:09;14.98;;;4.78;;
60722;SDS011;46574;52.818;6.516;2024-01-27T04:59:35;16.58;;;4.35;;
60722;SDS011;46574;52.818;6.516;2024-01-27T05:02:01;15.18;;;4.65;;
60722;SDS011;46574;52.818;6.516;2024-01-27T05:04:26;11.57;;;4.72;;
60722;SDS011;46574;52.818;6.516;2024-01-27T05:06:52;16.38;;;4.80;;
60722;SDS011;46574;52.818;6.516;2024-01-27T05:09:18;15.73;;;4.57;;
60722;SDS011;46574;52.818;6.516;2024-01-27T05:11:44;20.48;;;5.13;;
60722;SDS011;46574;52.818;6.516;2024-01-27T05:14:10;16.17;;;5.05;;
60722;SDS011;46574;52.818;6.516;2024-01-27T05:16:36;18.15;;;5.05;;
60722;SDS011;46574;52.818;6.516;2024-01-27T05:19:02;16.35;;;5.07;;
60722;SDS011;46574;52.818;6.516;2024-01-27T05:21:28;19.30;;;5.25;;
60722;SDS011;46574;52.818;6.516;2024-01-27T05:23:53;12.68;;;4.88;;
60722;SDS011;46574;52.818;6.516;2024-01-27T05:26:20;16.55;;;5.47;;
60722;SDS011;46574;52.818;6.516;2024-01-27T05:28:47;18.70;;;5.70;;
60722;SDS011;46574;52.818;6.516;2024-01-27T05:31:13;18.35;;;5.68;;
60722;SDS011;46574;52.818;6.516;2024-01-27T05:33:38;17.02;;;5.68;;
60722;SDS011;46574;52.818;6.516;2024-01-27T05:36:07;19.42;;;5.85;;
60722;SDS011;46574;52.818;6.516;2024-01-27T05:38:32;19.77;;;5.60;;
60722;SDS011;46574;52.818;6.516;2024-01-27T05:41:00;16.77;;;5.78;;
60722;SDS011;46574;52.818;6.516;2024-01-27T05:43:26;21.10;;;6.43;;
60722;SDS011;46574;52.818;6.516;2024-01-27T05:45:52;19.85;;;5.97;;
60722;SDS011;46574;52.818;6.516;2024-01-27T05:48:18;17.23;;;6.00;;
60722;SDS011;46574;52.818;6.516;2024-01-27T05:50:54;23.13;;;6.95;;
60722;SDS011;46574;52.818;6.516;2024-01-27T05:53:23;17.40;;;6.95;;
60722;SDS011;46574;52.818;6.516;2024-01-27T05:55:50;18.45;;;7.32;;
60722;SDS011;46574;52.818;6.516;2024-01-27T05:58:16;17.67;;;7.97;;
60722;SDS011;46574;52.818;6.516;2024-01-27T06:00:44;21.42;;;7.93;;
60722;SDS011;46574;52.818;6.516;2024-01-27T06:03:10;20.38;;;8.82;;
60722;SDS011;46574;52.818;6.516;2024-01-27T06:05:36;18.38;;;8.38;;
60722;SDS011;46574;52.818;6.516;2024-01-27T06:08:02;22.10;;;9.05;;
60722;SDS011;46574;52.818;6.516;2024-01-27T06:10:29;20.80;;;8.68;;
60722;SDS011;46574;52.818;6.516;2024-01-27T06:12:55;18.77;;;8.40;;
60722;SDS011;46574;52.818;6.516;2024-01-27T06:15:21;19.13;;;9.48;;
60722;SDS011;46574;52.818;6.516;2024-01-27T06:17:47;20.38;;;8.77;;
60722;SDS011;46574;52.818;6.516;2024-01-27T06:20:12;21.75;;;9.48;;
60722;SDS011;46574;52.818;6.516;2024-01-27T06:22:38;16.45;;;8.63;;
60722;SDS011;46574;52.818;6.516;2024-01-27T06:25:04;22.00;;;9.48;;
60722;SDS011;46574;52.818;6.516;2024-01-27T06:27:30;20.95;;;10.05;;
60722;SDS011;46574;52.818;6.516;2024-01-27T06:29:55;16.40;;;8.88;;
60722;SDS011;46574;52.818;6.516;2024-01-27T06:32:21;16.75;;;9.07;;
60722;SDS011;46574;52.818;6.516;2024-01-27T06:34:47;16.75;;;9.10;;
60722;SDS011;46574;52.818;6.516;2024-01-27T06:37:12;19.70;;;9.85;;
60722;SDS011;46574;52.818;6.516;2024-01-27T06:39:38;19.95;;;9.30;;
60722;SDS011;46574;52.818;6.516;2024-01-27T06:42:04;24.17;;;9.50;;
60722;SDS011;46574;52.818;6.516;2024-01-27T06:44:29;22.60;;;9.77;;
60722;SDS011;46574;52.818;6.516;2024-01-27T06:46:55;21.10;;;9.50;;
60722;SDS011;46574;52.818;6.516;2024-01-27T06:49:20;22.27;;;10.50;;
60722;SDS011;46574;52.818;6.516;2024-01-27T06:51:47;17.67;;;9.82;;
60722;SDS011;46574;52.818;6.516;2024-01-27T06:54:12;21.42;;;9.40;;
60722;SDS011;46574;52.818;6.516;2024-01-27T06:56:38;24.33;;;9.68;;
60722;SDS011;46574;52.818;6.516;2024-01-27T06:59:04;20.60;;;10.20;;
60722;SDS011;46574;52.818;6.516;2024-01-27T07:01:29;24.33;;;10.52;;
60722;SDS011;46574;52.818;6.516;2024-01-27T07:03:55;25.55;;;10.35;;
60722;SDS011;46574;52.818;6.516;2024-01-27T07:06:20;22.92;;;9.40;;
60722;SDS011;46574;52.818;6.516;2024-01-27T07:08:46;19.48;;;8.70;;
60722;SDS011;46574;52.818;6.516;2024-01-27T07:11:12;23.55;;;9.27;;
60722;SDS011;46574;52.818;6.516;2024-01-27T07:13:38;18.48;;;8.98;;
60722;SDS011;46574;52.818;6.516;2024-01-27T07:16:04;22.42;;;9.93;;
60722;SDS011;46574;52.818;6.516;2024-01-27T07:18:30;20.02;;;9.18;;
60722;SDS011;46574;52.818;6.516;2024-01-27T07:20:56;26.98;;;10.55;;
60722;SDS011;46574;52.818;6.516;2024-01-27T07:23:24;15.02;;;8.95;;
60722;SDS011;46574;52.818;6.516;2024-01-27T07:25:50;20.98;;;10.40;;
60722;SDS011;46574;52.818;6.516;2024-01-27T07:28:15;20.45;;;10.57;;
60722;SDS011;46574;52.818;6.516;2024-01-27T07:30:43;19.58;;;10.35;;
60722;SDS011;46574;52.818;6.516;2024-01-27T07:33:09;22.77;;;10.25;;
60722;SDS011;46574;52.818;6.516;2024-01-27T07:35:35;20.63;;;10.23;;
60722;SDS011;46574;52.818;6.516;2024-01-27T07:38:00;25.25;;;11.18;;
60722;SDS011;46574;52.818;6.516;2024-01-27T07:40:26;17.27;;;10.20;;
60722;SDS011;46574;52.818;6.516;2024-01-27T07:42:52;21.48;;;10.13;;
60722;SDS011;46574;52.818;6.516;2024-01-27T07:45:17;19.80;;;9.88;;
60722;SDS011;46574;52.818;6.516;2024-01-27T07:47:43;25.15;;;10.68;;
60722;SDS011;46574;52.818;6.516;2024-01-27T07:50:09;23.02;;;10.15;;
60722;SDS011;46574;52.818;6.516;2024-01-27T07:52:35;23.25;;;10.45;;
60722;SDS011;46574;52.818;6.516;2024-01-27T07:55:01;19.50;;;9.68;;
60722;SDS011;46574;52.818;6.516;2024-01-27T07:57:28;18.85;;;9.88;;
60722;SDS011;46574;52.818;6.516;2024-01-27T07:59:54;19.77;;;10.45;;
60722;SDS011;46574;52.818;6.516;2024-01-27T08:02:19;22.00;;;9.75;;
60722;SDS011;46574;52.818;6.516;2024-01-27T08:04:45;22.30;;;10.18;;
60722;SDS011;46574;52.818;6.516;2024-01-27T08:07:11;24.13;;;10.40;;
60722;SDS011;46574;52.818;6.516;2024-01-27T08:09:39;19.73;;;9.77;;
60722;SDS011;46574;52.818;6.516;2024-01-27T08:12:05;24.00;;;10.48;;
60722;SDS011;46574;52.818;6.516;2024-01-27T08:14:32;20.98;;;10.45;;
60722;SDS011;46574;52.818;6.516;2024-01-27T08:19:28;23.13;;;10.60;;
60722;SDS011;46574;52.818;6.516;2024-01-27T08:21:54;20.65;;;11.40;;
60722;SDS011;46574;52.818;6.516;2024-01-27T08:24:19;24.13;;;11.27;;
60722;SDS011;46574;52.818;6.516;2024-01-27T08:26:45;20.55;;;11.45;;
60722;SDS011;46574;52.818;6.516;2024-01-27T08:29:13;20.63;;;11.60;;
60722;SDS011;46574;52.818;6.516;2024-01-27T08:31:39;23.67;;;12.20;;
60722;SDS011;46574;52.818;6.516;2024-01-27T08:34:04;20.88;;;12.07;;
60722;SDS011;46574;52.818;6.516;2024-01-27T08:36:30;23.92;;;12.48;;
60722;SDS011;46574;52.818;6.516;2024-01-27T08:38:57;24.80;;;12.43;;
60722;SDS011;46574;52.818;6.516;2024-01-27T08:41:23;21.27;;;11.52;;
60722;SDS011;46574;52.818;6.516;2024-01-27T08:43:48;22.83;;;11.95;;
60722;SDS011;46574;52.818;6.516;2024-01-27T08:46:14;22.73;;;13.15;;
60722;SDS011;46574;52.818;6.516;2024-01-27T08:48:40;23.63;;;13.25;;
60722;SDS011;46574;52.818;6.516;2024-01-27T08:51:08;22.02;;;12.88;;
60722;SDS011;46574;52.818;6.516;2024-01-27T08:53:38;24.00;;;12.80;;
60722;SDS011;46574;52.818;6.516;2024-01-27T08:56:04;27.20;;;13.95;;
60722;SDS011;46574;52.818;6.516;2024-01-27T08:58:30;24.38;;;14.20;;
60722;SDS011;46574;52.818;6.516;2024-01-27T09:00:57;27.45;;;14.30;;
60722;SDS011;46574;52.818;6.516;2024-01-27T09:03:22;25.40;;;14.25;;
60722;SDS011;46574;52.818;6.516;2024-01-27T09:05:48;26.65;;;14.20;;
60722;SDS011;46574;52.818;6.516;2024-01-27T09:08:15;31.73;;;14.65;;
60722;SDS011;46574;52.818;6.516;2024-01-27T09:10:41;22.73;;;14.00;;
60722;SDS011;46574;52.818;6.516;2024-01-27T09:13:06;19.75;;;13.00;;
60722;SDS011;46574;52.818;6.516;2024-01-27T09:15:32;28.27;;;13.95;;
60722;SDS011;46574;52.818;6.516;2024-01-27T09:17:58;21.33;;;13.63;;
60722;SDS011;46574;52.818;6.516;2024-01-27T09:20:24;27.65;;;14.38;;
60722;SDS011;46574;52.818;6.516;2024-01-27T09:22:49;24.00;;;13.98;;
60722;SDS011;46574;52.818;6.516;2024-01-27T09:25:16;20.30;;;13.98;;
60722;SDS011;46574;52.818;6.516;2024-01-27T09:27:41;25.20;;;14.75;;
60722;SDS011;46574;52.818;6.516;2024-01-27T09:30:07;22.08;;;13.32;;
60722;SDS011;46574;52.818;6.516;2024-01-27T09:32:33;23.30;;;14.65;;
60722;SDS011;46574;52.818;6.516;2024-01-27T09:34:59;24.58;;;13.77;;
60722;SDS011;46574;52.818;6.516;2024-01-27T09:37:25;24.63;;;13.68;;
60722;SDS011;46574;52.818;6.516;2024-01-27T09:39:50;20.38;;;13.65;;
60722;SDS011;46574;52.818;6.516;2024-01-27T09:42:16;24.85;;;14.43;;
60722;SDS011;46574;52.818;6.516;2024-01-27T09:44:45;25.85;;;14.15;;
60722;SDS011;46574;52.818;6.516;2024-01-27T09:47:14;23.50;;;13.85;;
60722;SDS011;46574;52.818;6.516;2024-01-27T09:49:40;22.10;;;13.48;;
60722;SDS011;46574;52.818;6.516;2024-01-27T09:52:07;26.08;;;14.07;;
60722;SDS011;46574;52.818;6.516;2024-01-27T09:54:33;18.20;;;12.93;;
60722;SDS011;46574;52.818;6.516;2024-01-27T09:56:59;25.88;;;14.55;;
60722;SDS011;46574;52.818;6.516;2024-01-27T09:59:26;23.27;;;13.73;;
60722;SDS011;46574;52.818;6.516;2024-01-27T10:01:52;22.05;;;13.10;;
60722;SDS011;46574;52.818;6.516;2024-01-27T10:04:19;23.42;;;13.30;;
60722;SDS011;46574;52.818;6.516;2024-01-27T10:06:46;20.77;;;12.88;;
60722;SDS011;46574;52.818;6.516;2024-01-27T10:09:13;19.50;;;13.23;;
60722;SDS011;46574;52.818;6.516;2024-01-27T10:11:39;26.13;;;12.85;;
60722;SDS011;46574;52.818;6.516;2024-01-27T10:14:10;20.67;;;12.27;;
60722;SDS011;46574;52.818;6.516;2024-01-27T10:16:43;23.33;;;11.65;;
60722;SDS011;46574;52.818;6.516;2024-01-27T10:19:16;21.08;;;11.85;;
60722;SDS011;46574;52.818;6.516;2024-01-27T10:21:43;20.70;;;11.52;;
60722;SDS011;46574;52.818;6.516;2024-01-27T10:24:09;25.55;;;11.48;;
60722;SDS011;46574;52.818;6.516;2024-01-27T10:26:35;23.38;;;12.48;;
60722;SDS011;46574;52.818;6.516;2024-01-27T10:29:01;21.27;;;11.27;;
60722;SDS011;46574;52.818;6.516;2024-01-27T10:31:27;22.25;;;10.95;;
60722;SDS011;46574;52.818;6.516;2024-01-27T10:33:56;17.13;;;10.57;;
60722;SDS011;46574;52.818;6.516;2024-01-27T10:36:23;17.98;;;10.23;;
60722;SDS011;46574;52.818;6.516;2024-01-27T10:38:49;19.63;;;10.98;;
60722;SDS011;46574;52.818;6.516;2024-01-27T10:41:19;15.38;;;9.88;;
60722;SDS011;46574;52.818;6.516;2024-01-27T10:43:52;18.20;;;9.80;;
60722;SDS011;46574;52.818;6.516;2024-01-27T10:46:20;18.90;;;9.68;;
60722;SDS011;46574;52.818;6.516;2024-01-27T10:48:52;21.67;;;9.85;;
60722;SDS011;46574;52.818;6.516;2024-01-27T10:54:03;19.50;;;10.00;;
60722;SDS011;46574;52.818;6.516;2024-01-27T10:58:58;18.52;;;9.00;;
60722;SDS011;46574;52.818;6.516;2024-01-27T11:01:24;23.02;;;8.43;;
60722;SDS011;46574;52.818;6.516;2024-01-27T11:03:53;17.07;;;8.87;;
60722;SDS011;46574;52.818;6.516;2024-01-27T11:06:21;16.95;;;8.68;;
60722;SDS011;46574;52.818;6.516;2024-01-27T11:08:49;19.30;;;8.75;;
60722;SDS011;46574;52.818;6.516;2024-01-27T11:11:16;18.52;;;7.53;;
60722;SDS011;46574;52.818;6.516;2024-01-27T11:13:42;19.80;;;7.82;;
60722;SDS011;46574;52.818;6.516;2024-01-27T11:16:17;19.58;;;8.60;;
60722;SDS011;46574;52.818;6.516;2024-01-27T11:18:44;15.05;;;7.95;;
60722;SDS011;46574;52.818;6.516;2024-01-27T11:21:14;14.57;;;7.38;;
60722;SDS011;46574;52.818;6.516;2024-01-27T11:23:43;16.50;;;7.97;;
60722;SDS011;46574;52.818;6.516;2024-01-27T11:26:17;13.23;;;6.90;;
60722;SDS011;46574;52.818;6.516;2024-01-27T11:28:44;17.10;;;7.38;;
60722;SDS011;46574;52.818;6.516;2024-01-27T11:31:10;18.10;;;8.15;;
60722;SDS011;46574;52.818;6.516;2024-01-27T11:33:43;12.50;;;7.32;;
60722;SDS011;46574;52.818;6.516;2024-01-27T11:36:17;19.50;;;7.53;;
60722;SDS011;46574;52.818;6.516;2024-01-27T11:38:50;17.73;;;7.38;;
60722;SDS011;46574;52.818;6.516;2024-01-27T11:41:23;16.80;;;7.18;;
60722;SDS011;46574;52.818;6.516;2024-01-27T11:43:53;12.52;;;7.40;;
60722;SDS011;46574;52.818;6.516;2024-01-27T11:46:20;14.68;;;6.63;;
60722;SDS011;46574;52.818;6.516;2024-01-27T11:48:45;16.13;;;7.03;;
60722;SDS011;46574;52.818;6.516;2024-01-27T11:51:11;15.20;;;6.93;;
60722;SDS011;46574;52.818;6.516;2024-01-27T11:53:37;13.25;;;6.68;;
60722;SDS011;46574;52.818;6.516;2024-01-27T11:56:03;16.50;;;7.03;;
60722;SDS011;46574;52.818;6.516;2024-01-27T11:58:30;15.25;;;7.03;;
60722;SDS011;46574;52.818;6.516;2024-01-27T12:00:56;17.35;;;6.97;;
60722;SDS011;46574;52.818;6.516;2024-01-27T12:03:23;14.88;;;7.43;;
60722;SDS011;46574;52.818;6.516;2024-01-27T12:05:49;15.07;;;6.82;;
60722;SDS011;46574;52.818;6.516;2024-01-27T12:08:16;14.63;;;6.95;;
60722;SDS011;46574;52.818;6.516;2024-01-27T12:10:42;13.30;;;7.00;;
60722;SDS011;46574;52.818;6.516;2024-01-27T12:13:07;20.73;;;7.47;;
60722;SDS011;46574;52.818;6.516;2024-01-27T12:15:33;13.30;;;7.07;;
60722;SDS011;46574;52.818;6.516;2024-01-27T12:17:59;18.42;;;7.30;;
60722;SDS011;46574;52.818;6.516;2024-01-27T12:20:25;18.50;;;7.13;;
60722;SDS011;46574;52.818;6.516;2024-01-27T12:23:01;15.50;;;7.10;;
60722;SDS011;46574;52.818;6.516;2024-01-27T12:25:36;20.50;;;8.05;;
60722;SDS011;46574;52.818;6.516;2024-01-27T12:28:05;17.75;;;7.28;;
60722;SDS011;46574;52.818;6.516;2024-01-27T12:30:32;16.38;;;6.97;;
60722;SDS011;46574;52.818;6.516;2024-01-27T12:32:59;13.07;;;7.00;;
60722;SDS011;46574;52.818;6.516;2024-01-27T12:35:25;16.60;;;7.07;;
60722;SDS011;46574;52.818;6.516;2024-01-27T12:37:52;15.93;;;7.68;;
60722;SDS011;46574;52.818;6.516;2024-01-27T12:40:22;15.38;;;7.47;;
60722;SDS011;46574;52.818;6.516;2024-01-27T12:42:48;17.83;;;7.13;;
60722;SDS011;46574;52.818;6.516;2024-01-27T12:45:14;11.55;;;6.90;;
60722;SDS011;46574;52.818;6.516;2024-01-27T12:47:40;15.45;;;7.75;;
60722;SDS011;46574;52.818;6.516;2024-01-27T12:50:06;15.48;;;7.57;;
60722;SDS011;46574;52.818;6.516;2024-01-27T12:52:32;15.38;;;6.53;;
60722;SDS011;46574;52.818;6.516;2024-01-27T12:54:58;14.20;;;6.65;;
60722;SDS011;46574;52.818;6.516;2024-01-27T12:57:23;10.43;;;6.30;;
60722;SDS011;46574;52.818;6.516;2024-01-27T12:59:49;14.18;;;6.90;;
60722;SDS011;46574;52.818;6.516;2024-01-27T13:02:15;15.63;;;7.20;;
60722;SDS011;46574;52.818;6.516;2024-01-27T13:04:41;18.85;;;7.40;;
60722;SDS011;46574;52.818;6.516;2024-01-27T13:07:07;13.25;;;7.20;;
60722;SDS011;46574;52.818;6.516;2024-01-27T13:09:33;15.48;;;7.10;;
60722;SDS011;46574;52.818;6.516;2024-01-27T13:11:59;19.00;;;7.38;;
60722;SDS011;46574;52.818;6.516;2024-01-27T13:14:25;10.50;;;6.57;;
60722;SDS011;46574;52.818;6.516;2024-01-27T13:16:51;13.63;;;6.55;;
60722;SDS011;46574;52.818;6.516;2024-01-27T13:19:19;15.40;;;6.18;;
60722;SDS011;46574;52.818;6.516;2024-01-27T13:21:44;16.30;;;6.40;;
60722;SDS011;46574;52.818;6.516;2024-01-27T13:24:10;15.05;;;7.00;;
60722;SDS011;46574;52.818;6.516;2024-01-27T13:26:36;15.32;;;6.00;;
60722;SDS011;46574;52.818;6.516;2024-01-27T13:29:04;16.25;;;6.78;;
60722;SDS011;46574;52.818;6.516;2024-01-27T13:31:30;15.75;;;6.70;;
60722;SDS011;46574;52.818;6.516;2024-01-27T13:33:56;14.98;;;6.78;;
60722;SDS011;46574;52.818;6.516;2024-01-27T13:36:22;14.93;;;6.43;;
60722;SDS011;46574;52.818;6.516;2024-01-27T13:38:48;18.63;;;7.57;;
60722;SDS011;46574;52.818;6.516;2024-01-27T13:41:14;14.80;;;6.65;;
60722;SDS011;46574;52.818;6.516;2024-01-27T13:43:40;16.27;;;8.25;;
60722;SDS011;46574;52.818;6.516;2024-01-27T13:46:06;15.70;;;6.95;;
60722;SDS011;46574;52.818;6.516;2024-01-27T13:48:32;14.40;;;6.85;;
60722;SDS011;46574;52.818;6.516;2024-01-27T13:50:58;19.30;;;8.05;;
60722;SDS011;46574;52.818;6.516;2024-01-27T13:53:23;15.00;;;7.10;;
60722;SDS011;46574;52.818;6.516;2024-01-27T13:55:49;11.55;;;6.03;;
60722;SDS011;46574;52.818;6.516;2024-01-27T13:58:15;13.98;;;6.65;;
60722;SDS011;46574;52.818;6.516;2024-01-27T14:00:41;12.35;;;6.70;;
60722;SDS011;46574;52.818;6.516;2024-01-27T14:03:07;13.88;;;6.80;;
60722;SDS011;46574;52.818;6.516;2024-01-27T14:05:33;13.80;;;7.15;;
60722;SDS011;46574;52.818;6.516;2024-01-27T14:07:59;11.88;;;6.70;;
60722;SDS011;46574;52.818;6.516;2024-01-27T14:10:25;10.52;;;5.70;;
60722;SDS011;46574;52.818;6.516;2024-01-27T14:12:51;12.05;;;6.30;;
60722;SDS011;46574;52.818;6.516;2024-01-27T14:15:17;16.20;;;6.53;;
60722;SDS011;46574;52.818;6.516;2024-01-27T14:17:42;14.45;;;7.43;;
60722;SDS011;46574;52.818;6.516;2024-01-27T14:20:09;14.90;;;7.05;;
60722;SDS011;46574;52.818;6.516;2024-01-27T14:22:35;12.68;;;6.32;;
60722;SDS011;46574;52.818;6.516;2024-01-27T14:25:01;13.75;;;6.93;;
60722;SDS011;46574;52.818;6.516;2024-01-27T14:27:27;13.38;;;5.90;;
60722;SDS011;46574;52.818;6.516;2024-01-27T14:29:53;14.40;;;6.55;;
60722;SDS011;46574;52.818;6.516;2024-01-27T14:32:20;13.35;;;6.18;;